Time;durP1;ratioP1;P1;durP2;ratioP2;P2;SDS_P1;SDS_P2;PMS_P1;PMS_P2;Temp;Humidity;BMP_temperature;BMP_pressure;BME280_temperature;BME280_humidity;BME280_pressure;Samples;Min_cycle;Max_cycle;Signal;HPM_P1;HPM_P2
2023/09/06 00:01:35;;;;;;;6.90;4.43;;;;;;;18.19;73.08;95075.53;4188307;28;20048;-74
2023/09/06 00:03:37;;;;;;;5.30;4.38;;;;;;;18.11;73.14;95073.09;4202894;28;20059;-75
2023/09/06 00:05:41;;;;;;;6.25;4.40;;;;;;;18.09;73.53;95072.47;4198868;28;20044;-76
2023/09/06 00:07:44;;;;;;;6.65;4.80;;;;;;;18.04;73.35;95066.91;4198390;28;20052;-77
2023/09/06 00:09:46;;;;;;;6.22;4.90;;;;;;;17.93;73.87;95068.28;4193995;28;20072;-75
2023/09/06 00:11:48;;;;;;;4.88;4.20;;;;;;;17.85;74.37;95075.56;4194713;28;20127;-74
2023/09/06 00:13:50;;;;;;;6.90;4.63;;;;;;;17.81;74.44;95059.22;4176000;28;20107;-73
2023/09/06 00:15:51;;;;;;;6.60;5.28;;;;;;;17.86;74.83;95067.44;4189388;28;20086;-73
2023/09/06 00:17:53;;;;;;;5.03;4.53;;;;;;;17.90;74.62;95073.97;4191784;28;20471;-74
2023/09/06 00:19:55;;;;;;;5.88;5.05;;;;;;;17.96;74.43;95070.56;4187832;28;20131;-73
2023/09/06 00:21:58;;;;;;;8.40;6.18;;;;;;;18.00;74.39;95068.31;4195872;28;20052;-75
2023/09/06 00:24:00;;;;;;;7.78;5.00;;;;;;;18.04;74.24;95064.25;4193044;28;20140;-73
2023/09/06 00:26:02;;;;;;;7.38;4.82;;;;;;;18.11;73.80;95075.72;4191259;28;20048;-73
2023/09/06 00:28:09;;;;;;;11.25;5.20;;;;;;;18.17;73.45;95076.75;4193968;28;20051;-77
2023/09/06 00:30:10;;;;;;;5.10;4.60;;;;;;;18.03;73.42;95080.38;4192100;28;20052;-75
2023/09/06 00:32:12;;;;;;;6.35;5.07;;;;;;;17.95;73.44;95073.41;4191816;28;20070;-73
2023/09/06 00:34:14;;;;;;;7.97;5.05;;;;;;;17.83;73.66;95065.16;4181795;28;20052;-73
2023/09/06 00:36:16;;;;;;;8.57;5.15;;;;;;;17.85;74.12;95078.22;4194146;28;20222;-75
2023/09/06 00:38:18;;;;;;;6.00;5.40;;;;;;;17.83;74.38;95067.81;4193456;28;20387;-74
2023/09/06 00:40:22;;;;;;;;;;;;;;;17.83;74.43;95062.50;4176309;28;20083;-74
2023/09/06 00:42:26;;;;;;;5.63;5.07;;;;;;;17.79;74.33;95058.59;4190920;28;19990;-75
2023/09/06 00:44:30;;;;;;;8.68;5.10;;;;;;;17.76;74.23;95058.97;4178653;28;20080;-75
2023/09/06 00:46:34;;;;;;;7.85;5.47;;;;;;;17.69;74.48;95058.94;4193353;28;20094;-72
2023/09/06 00:48:36;;;;;;;5.57;4.97;;;;;;;17.70;74.98;95059.75;4192242;28;20083;-72
2023/09/06 00:50:40;;;;;;;5.25;4.72;;;;;;;17.68;74.84;95059.97;4188964;28;20122;-74
2023/09/06 00:52:43;;;;;;;7.30;5.40;;;;;;;17.70;74.64;95057.94;4184049;28;20127;-78
2023/09/06 00:54:44;;;;;;;6.15;5.55;;;;;;;17.62;74.82;95058.09;4191593;28;20056;-75
2023/09/06 00:56:47;;;;;;;9.32;4.75;;;;;;;17.57;74.87;95055.19;4182777;28;20059;-74
2023/09/06 00:58:52;;;;;;;5.97;5.30;;;;;;;17.61;75.25;95046.66;4193927;28;20106;-73
2023/09/06 01:00:54;;;;;;;9.75;4.97;;;;;;;17.66;74.92;95042.59;4192937;28;20128;-74
2023/09/06 01:02:56;;;;;;;6.72;4.95;;;;;;;17.65;75.05;95040.97;4194156;28;20053;-74
2023/09/06 01:04:58;;;;;;;6.82;5.47;;;;;;;17.70;75.15;95050.00;4195238;28;20135;-74
2023/09/06 01:07:01;;;;;;;6.80;5.13;;;;;;;17.77;75.06;95039.44;4176294;28;20053;-75
2023/09/06 01:09:05;;;;;;;8.05;5.47;;;;;;;17.83;74.75;95038.66;4175180;28;20056;-75
2023/09/06 01:11:21;;;;;;;7.35;5.38;;;;;;;17.87;74.56;95045.19;4188458;28;20056;-77
2023/09/06 01:13:23;;;;;;;7.40;5.43;;;;;;;17.83;74.31;95043.16;4185309;28;20049;-75
2023/09/06 01:15:25;;;;;;;7.57;5.75;;;;;;;17.86;74.53;95040.13;4191630;28;20072;-74
2023/09/06 01:17:28;;;;;;;7.60;5.30;;;;;;;17.86;74.68;95037.47;4165877;28;20081;-73
2023/09/06 01:19:31;;;;;;;9.23;5.33;;;;;;;17.87;74.68;95039.09;4189631;28;20379;-74
2023/09/06 01:21:38;;;;;;;6.75;5.22;;;;;;;17.86;74.85;95040.94;4169323;28;20278;-74
2023/09/06 01:23:41;;;;;;;5.32;4.80;;;;;;;17.70;74.46;95036.75;4184038;28;20127;-76
2023/09/06 01:25:44;;;;;;;9.00;5.13;;;;;;;17.57;74.74;95041.94;4189703;28;20140;-76
2023/09/06 01:27:47;;;;;;;6.15;5.30;;;;;;;17.55;74.78;95046.59;4174183;28;20053;-73
2023/09/06 01:29:48;;;;;;;5.72;5.13;;;;;;;17.48;75.08;95046.56;4189486;28;20048;-75
2023/09/06 01:31:50;;;;;;;9.80;5.15;;;;;;;17.40;75.32;95038.75;4182090;28;20323;-75
2023/09/06 01:33:52;;;;;;;6.72;5.50;;;;;;;17.30;75.76;95044.41;4177813;28;20068;-74
2023/09/06 01:35:55;;;;;;;9.35;5.07;;;;;;;17.26;75.92;95043.16;4200510;28;20045;-75
2023/09/06 01:37:57;;;;;;;5.82;5.20;;;;;;;17.24;76.63;95050.47;4195908;28;20048;-74
2023/09/06 01:39:58;;;;;;;6.63;5.78;;;;;;;17.24;76.50;95047.81;4190319;28;20492;-76
2023/09/06 01:42:00;;;;;;;6.97;4.88;;;;;;;17.30;76.21;95046.25;4186428;28;20048;-76
2023/09/06 01:44:02;;;;;;;6.70;5.15;;;;;;;17.30;76.16;95043.59;4195241;28;20052;-74
2023/09/06 01:46:04;;;;;;;5.57;5.05;;;;;;;17.29;76.07;95034.00;4193532;28;20099;-74
2023/09/06 01:48:06;;;;;;;8.95;5.53;;;;;;;17.36;75.91;95035.69;4184738;28;20460;-75
2023/09/06 01:50:08;;;;;;;5.93;4.95;;;;;;;17.43;75.78;95033.09;4169496;28;20072;-72
2023/09/06 01:52:10;;;;;;;5.38;4.80;;;;;;;17.49;75.82;95031.50;4198145;28;20048;-73
2023/09/06 01:54:12;;;;;;;6.15;5.05;;;;;;;17.56;75.62;95035.00;4179420;28;20103;-75
2023/09/06 01:56:14;;;;;;;10.55;5.15;;;;;;;17.53;75.02;95030.94;4190252;28;20052;-75
2023/09/06 01:58:16;;;;;;;7.43;4.90;;;;;;;17.53;75.31;95022.97;4193474;28;20056;-75
2023/09/06 02:00:27;;;;;;;7.28;5.47;;;;;;;17.55;75.19;95036.84;4195561;28;20515;-73
2023/09/06 02:02:28;;;;;;;6.18;5.38;;;;;;;17.50;75.02;95033.94;4185210;28;20052;-74
2023/09/06 02:04:30;;;;;;;6.88;5.20;;;;;;;17.53;75.32;95030.94;4196165;28;20117;-74
2023/09/06 02:06:32;;;;;;;6.22;5.47;;;;;;;17.50;75.20;95033.94;4197020;28;20075;-73
2023/09/06 02:08:35;;;;;;;9.20;5.65;;;;;;;17.51;75.38;95040.91;4192424;28;20106;-74
2023/09/06 02:10:37;;;;;;;7.63;5.63;;;;;;;17.51;75.38;95030.31;4199883;28;20056;-72
2023/09/06 02:12:39;;;;;;;10.02;5.55;;;;;;;17.54;75.44;95040.50;4177156;28;20064;-75
2023/09/06 02:14:41;;;;;;;6.75;5.65;;;;;;;17.58;75.56;95033.81;4195405;28;20048;-72
2023/09/06 02:16:45;;;;;;;6.20;4.80;;;;;;;17.58;75.10;95033.81;4197851;28;20052;-73
2023/09/06 02:18:47;;;;;;;7.60;5.53;;;;;;;17.55;75.08;95034.22;4196347;28;20056;-75
2023/09/06 02:20:50;;;;;;;6.63;5.63;;;;;;;17.58;75.40;95036.44;4196213;28;20075;-75
2023/09/06 02:22:57;;;;;;;8.13;6.07;;;;;;;17.64;75.42;95040.16;4178138;28;20057;-74
2023/09/06 02:24:59;;;;;;;7.03;5.57;;;;;;;17.68;75.17;95037.94;4195814;28;20064;-75
2023/09/06 02:27:01;;;;;;;7.85;5.38;;;;;;;17.74;75.02;95037.16;4186790;28;20143;-75
2023/09/06 02:29:05;;;;;;;8.43;5.22;;;;;;;17.81;74.91;95036.19;4204938;28;20053;-75
2023/09/06 02:31:07;;;;;;;6.95;6.05;;;;;;;17.84;74.42;95040.31;4187608;28;20431;-73
2023/09/06 02:33:13;;;;;;;6.72;5.45;;;;;;;17.85;74.37;95036.63;4193628;28;20253;-76
2023/09/06 02:35:16;;;;;;;7.35;5.65;;;;;;;17.88;73.98;95036.25;4164135;28;20116;-75
2023/09/06 02:37:17;;;;;;;8.95;5.10;;;;;;;17.84;73.51;95035.00;4182266;28;20088;-74
2023/09/06 02:39:19;;;;;;;9.40;5.50;;;;;;;17.73;73.25;95038.19;4181335;28;20096;-76
2023/09/06 02:41:21;;;;;;;6.25;5.03;;;;;;;17.68;73.40;95043.22;4184122;28;20049;-75
2023/09/06 02:43:23;;;;;;;5.47;4.97;;;;;;;17.52;73.79;95037.22;4195706;28;20085;-73
2023/09/06 02:45:36;;;;;;;9.20;5.30;;;;;;;17.48;73.98;95041.25;4186015;28;20056;-72
2023/09/06 02:47:48;;;;;;;9.38;5.43;;;;;;;17.47;74.47;95039.66;4185808;28;20075;-73
2023/09/06 02:49:55;;;;;;;8.10;5.63;;;;;;;17.49;74.23;95034.97;4194532;28;20102;-74
2023/09/06 02:51:57;;;;;;;6.80;5.80;;;;;;;17.44;73.94;95033.91;4190425;28;20099;-76
2023/09/06 02:54:02;;;;;;;7.88;5.50;;;;;;;17.44;74.20;95036.56;4188554;28;20075;-75
2023/09/06 02:56:04;;;;;;;8.90;5.32;;;;;;;17.46;74.34;95032.69;4185667;28;20083;-75
2023/09/06 02:58:07;;;;;;;6.07;5.47;;;;;;;17.47;73.76;95025.59;4188248;28;20178;-73
2023/09/06 03:00:26;;;;;;;6.43;5.82;;;;;;;17.46;73.14;95031.88;4167115;28;20361;-73
2023/09/06 03:02:28;;;;;;;9.75;5.43;;;;;;;17.40;73.26;95038.75;4167081;28;20045;-75
2023/09/06 03:04:34;;;;;;;9.70;5.18;;;;;;;17.34;73.40;95036.91;4196148;28;20126;-75
2023/09/06 03:06:37;;;;;;;5.65;5.05;;;;;;;17.35;73.62;95041.19;4177181;28;20049;-74
2023/09/06 03:08:39;;;;;;;8.77;5.85;;;;;;;17.35;73.47;95043.81;4183973;28;20075;-74
2023/09/06 03:10:44;;;;;;;8.32;5.57;;;;;;;17.38;73.69;95048.75;4187902;28;20276;-75
2023/09/06 03:12:47;;;;;;;6.78;5.13;;;;;;;17.37;73.50;95045.25;4195897;28;20071;-75
2023/09/06 03:14:50;;;;;;;8.00;5.28;;;;;;;17.34;73.82;95050.16;4193918;28;20463;-74
2023/09/06 03:16:53;;;;;;;7.40;5.68;;;;;;;17.28;73.76;95045.63;4195858;28;20504;-75
2023/09/06 03:18:55;;;;;;;11.10;7.65;;;;;;;17.15;74.62;95051.63;4194524;28;20400;-74
2023/09/06 03:21:01;;;;;;;17.73;7.55;;;;;;;17.03;74.52;95042.56;4192431;28;20511;-74
2023/09/06 03:23:19;;;;;;;7.07;5.88;;;;;;;17.07;74.81;95047.28;4173344;28;20049;-74
2023/09/06 03:25:21;;;;;;;8.00;5.70;;;;;;;17.08;74.73;95043.63;4193878;28;20124;-74
2023/09/06 03:27:23;;;;;;;10.07;6.10;;;;;;;17.13;74.63;95049.16;4189802;28;20186;-74
2023/09/06 03:29:27;;;;;;;9.73;6.13;;;;;;;17.23;74.71;95048.00;4187591;28;20057;-75
2023/09/06 03:31:29;;;;;;;10.65;6.18;;;;;;;17.32;74.48;95041.56;4186246;28;20044;-74
2023/09/06 03:33:31;;;;;;;8.40;6.03;;;;;;;17.32;73.80;95050.34;4194747;28;20080;-74
2023/09/06 03:35:33;;;;;;;7.72;5.47;;;;;;;17.35;73.82;95057.06;4194770;28;20290;-74
2023/09/06 03:37:35;;;;;;;14.18;5.35;;;;;;;17.24;73.54;95049.66;4195767;28;20051;-72
2023/09/06 03:39:41;;;;;;;8.75;5.68;;;;;;;17.19;73.63;95048.41;4194226;28;20455;-75
2023/09/06 03:41:42;;;;;;;7.75;5.70;;;;;;;17.18;74.00;95057.34;4196176;28;20080;-74
2023/09/06 03:43:45;;;;;;;9.40;6.13;;;;;;;17.26;74.24;95045.00;4195647;28;20139;-74
2023/09/06 03:45:53;;;;;;;7.82;5.82;;;;;;;17.33;73.60;95049.31;4181811;28;20056;-74
2023/09/06 03:47:54;;;;;;;7.68;5.57;;;;;;;17.36;73.60;95048.94;4166709;28;20508;-75
2023/09/06 03:49:59;;;;;;;12.77;7.00;;;;;;;17.35;73.21;95046.47;4194363;28;20131;-75
2023/09/06 03:52:06;;;;;;;7.57;5.75;;;;;;;17.29;73.15;95052.53;4183208;28;20110;-74
2023/09/06 03:54:09;;;;;;;8.65;5.47;;;;;;;17.29;73.30;95053.34;4193241;28;20079;-75
2023/09/06 03:56:12;;;;;;;9.25;5.95;;;;;;;17.25;73.06;95064.50;4174506;28;20531;-74
2023/09/06 03:58:14;;;;;;;13.93;5.82;;;;;;;17.19;73.26;95061.63;4185415;28;20057;-74
2023/09/06 04:00:26;;;;;;;9.55;6.60;;;;;;;17.23;73.23;95066.53;4182211;28;20490;-75
2023/09/06 04:02:28;;;;;;;6.28;5.45;;;;;;;17.14;73.15;95066.69;4194505;28;20424;-75
2023/09/06 04:04:30;;;;;;;8.05;6.03;;;;;;;17.18;73.46;95067.91;4195124;28;20121;-75
2023/09/06 04:06:34;;;;;;;8.43;6.10;;;;;;;17.19;73.29;95069.56;4194221;28;20102;-74
2023/09/06 04:08:36;;;;;;;8.73;5.65;;;;;;;17.15;73.15;95073.63;4191175;28;20044;-74
2023/09/06 04:10:42;;;;;;;7.57;5.67;;;;;;;17.17;73.28;95070.78;4175519;28;20037;-75
2023/09/06 04:12:44;;;;;;;12.25;6.28;;;;;;;17.10;73.61;95080.47;4194517;28;20052;-74
2023/09/06 04:14:46;;;;;;;10.32;6.43;;;;;;;17.11;73.86;95075.00;4192989;28;20051;-75
2023/09/06 04:16:48;;;;;;;11.30;6.60;;;;;;;17.15;73.52;95072.81;4195285;28;20368;-72
2023/09/06 04:18:50;;;;;;;7.93;5.68;;;;;;;17.24;73.59;95070.84;4187921;28;20140;-73
2023/09/06 04:20:52;;;;;;;7.82;5.97;;;;;;;17.31;73.45;95069.88;4193731;28;20109;-75
2023/09/06 04:22:57;;;;;;;8.35;6.10;;;;;;;17.35;73.03;95072.94;4185608;28;20124;-74
2023/09/06 04:24:59;;;;;;;10.95;6.32;;;;;;;17.40;72.99;95081.13;4193049;28;20742;-73
2023/09/06 04:27:01;;;;;;;9.50;6.38;;;;;;;17.29;72.91;95081.66;4196098;28;20044;-73
2023/09/06 04:29:03;;;;;;;7.22;5.68;;;;;;;17.35;73.26;95086.19;4184767;28;20113;-73
2023/09/06 04:31:04;;;;;;;11.25;6.50;;;;;;;17.34;72.67;95082.72;4168767;28;20570;-78
2023/09/06 04:33:12;;;;;;;14.07;6.15;;;;;;;17.34;72.86;95082.72;4190911;28;20059;-75
2023/09/06 04:35:15;;;;;;;14.07;6.10;;;;;;;17.31;72.62;95077.00;4176542;28;20555;-74
2023/09/06 04:37:18;;;;;;;7.68;6.25;;;;;;;17.39;72.14;95080.31;4193179;28;20040;-75
2023/09/06 04:39:20;;;;;;;7.60;5.45;;;;;;;17.44;71.97;95082.38;4186950;28;20068;-73
2023/09/06 04:41:22;;;;;;;8.20;6.15;;;;;;;17.51;71.84;95087.72;4194273;28;20053;-75
2023/09/06 04:43:25;;;;;;;9.10;5.88;;;;;;;17.63;71.90;95086.19;4185242;28;20068;-74
2023/09/06 04:45:27;;;;;;;7.65;6.47;;;;;;;17.77;71.84;95092.44;4183778;28;20114;-74
2023/09/06 04:47:30;;;;;;;7.93;5.82;;;;;;;17.87;72.53;95082.31;4186674;28;20045;-74
2023/09/06 04:49:34;;;;;;;10.82;5.95;;;;;;;17.91;71.43;95083.56;4190464;28;20040;-73
2023/09/06 04:51:35;;;;;;;8.45;6.40;;;;;;;17.85;70.80;95089.63;4186203;28;20045;-76
2023/09/06 04:53:37;;;;;;;8.93;6.15;;;;;;;17.86;71.11;95085.19;4160439;28;20049;-76
2023/09/06 04:55:40;;;;;;;8.98;6.13;;;;;;;17.85;70.90;95083.53;4173175;28;20087;-75
2023/09/06 04:57:42;;;;;;;9.65;6.68;;;;;;;17.83;71.51;95086.34;4180213;28;20135;-75
2023/09/06 04:59:44;;;;;;;11.55;6.57;;;;;;;17.92;71.32;95102.94;4174880;28;20104;-74
2023/09/06 05:01:46;;;;;;;14.07;6.65;;;;;;;18.00;70.95;95093.00;4185120;28;20053;-74
2023/09/06 05:03:47;;;;;;;8.18;6.07;;;;;;;18.01;70.59;95093.81;4193665;28;20056;-75
2023/09/06 05:05:51;;;;;;;7.65;5.97;;;;;;;18.00;70.93;95095.66;4191862;28;20117;-75
2023/09/06 05:07:53;;;;;;;11.15;6.40;;;;;;;18.09;71.61;95098.13;4192504;28;20044;-76
2023/09/06 05:09:57;;;;;;;9.25;6.20;;;;;;;18.16;71.55;95096.34;4187337;28;20288;-75
2023/09/06 05:11:59;;;;;;;11.52;6.70;;;;;;;18.15;70.39;95095.50;4194363;28;20066;-73
2023/09/06 05:14:01;;;;;;;9.45;6.93;;;;;;;18.19;70.42;95096.75;4185458;28;20162;-74
2023/09/06 05:16:03;;;;;;;8.35;6.32;;;;;;;18.21;70.49;95096.56;4190358;28;20139;-74
2023/09/06 05:18:05;;;;;;;9.50;6.28;;;;;;;18.26;70.95;95088.03;4193039;28;20063;-74
2023/09/06 05:20:27;;;;;;;8.70;6.72;;;;;;;18.28;72.30;95096.59;4190121;28;20492;-75
2023/09/06 05:22:29;;;;;;;14.23;6.95;;;;;;;18.34;71.53;95103.78;4186844;28;20076;-75
2023/09/06 05:24:31;;;;;;;11.13;6.47;;;;;;;18.35;70.24;95100.13;4193867;28;20059;-76
2023/09/06 05:26:33;;;;;;;8.27;6.80;;;;;;;18.30;69.81;95102.53;4193965;28;20116;-76
2023/09/06 05:28:35;;;;;;;13.52;7.38;;;;;;;18.37;70.11;95101.56;4194241;28;20109;-74
2023/09/06 05:30:42;;;;;;;9.40;6.60;;;;;;;18.47;69.98;95100.34;4194228;28;20044;-76
2023/09/06 05:32:44;;;;;;;7.47;5.88;;;;;;;18.48;69.14;95107.31;4192632;28;20144;-75
2023/09/06 05:34:47;;;;;;;9.50;6.28;;;;;;;18.49;69.63;95112.41;4193179;28;20136;-77
2023/09/06 05:36:49;;;;;;;8.20;6.35;;;;;;;18.49;68.58;95103.63;4186417;28;20071;-78
2023/09/06 05:38:51;;;;;;;10.43;6.22;;;;;;;18.50;68.43;95107.91;4193252;28;20057;-76
2023/09/06 05:40:53;;;;;;;9.20;5.80;;;;;;;18.51;68.29;95110.38;4184787;28;20052;-75
2023/09/06 05:43:33;;;;;;;9.25;6.78;;;;;;;18.56;68.01;95110.63;4191503;28;20053;-74
2023/09/06 05:45:35;;;;;;;9.43;6.05;;;;;;;18.58;68.00;95107.75;4110540;28;20543;-77
2023/09/06 05:47:38;;;;;;;8.60;5.82;;;;;;;18.62;67.34;95109.78;4118426;28;20517;-75
2023/09/06 05:49:40;;;;;;;9.38;6.60;;;;;;;18.55;67.43;95110.81;4112774;28;20545;-75
2023/09/06 05:51:43;;;;;;;10.07;6.30;;;;;;;18.51;67.28;95110.38;4117792;28;20150;-73
2023/09/06 05:53:45;;;;;;;8.10;6.15;;;;;;;18.57;67.54;95106.94;4108247;28;20153;-73
2023/09/06 05:55:46;;;;;;;12.30;5.57;;;;;;;18.62;67.05;95111.63;4105799;28;20502;-74
2023/09/06 05:57:49;;;;;;;9.15;5.97;;;;;;;18.57;67.04;95109.59;4120667;28;20611;-77
2023/09/06 05:59:51;;;;;;;11.40;6.18;;;;;;;18.63;66.80;95113.28;4118517;28;20165;-77
2023/09/06 06:01:52;;;;;;;10.15;5.63;;;;;;;18.65;67.32;95113.91;4125937;28;20054;-76
2023/09/06 06:03:54;;;;;;;11.43;5.85;;;;;;;18.74;67.33;95120.66;4124482;28;20081;-74
2023/09/06 06:05:56;;;;;;;6.47;5.47;;;;;;;18.83;66.80;95124.81;4121321;28;20050;-75
2023/09/06 06:07:58;;;;;;;9.77;5.50;;;;;;;18.94;66.66;95130.56;4120713;28;20189;-73
2023/09/06 06:10:00;;;;;;;12.50;5.57;;;;;;;18.96;66.50;95121.38;4121062;28;20081;-76
2023/09/06 06:12:03;;;;;;;8.48;5.55;;;;;;;18.97;65.86;95123.03;4102293;28;20058;-80
2023/09/06 06:14:05;;;;;;;10.10;5.63;;;;;;;19.05;65.79;95124.66;4124450;28;20060;-78
2023/09/06 06:16:11;;;;;;;9.43;5.18;;;;;;;19.10;65.71;95132.84;4143864;28;20064;-78
2023/09/06 06:18:15;;;;;;;11.50;5.97;;;;;;;19.17;65.73;95136.31;4195578;28;20071;-75
2023/09/06 06:20:17;;;;;;;;;;;;;;;19.22;65.31;95139.19;4197648;28;20053;-75
2023/09/06 06:22:25;;;;;;;9.40;5.65;;;;;;;19.27;64.76;95135.91;4199871;28;20261;-75
2023/09/06 06:24:27;;;;;;;19.15;8.02;;;;;;;19.30;64.55;95134.72;4173009;28;20047;-77
2023/09/06 06:26:29;;;;;;;11.35;5.55;;;;;;;19.30;64.36;95143.50;4194379;28;20491;-78
2023/09/06 06:28:30;;;;;;;13.32;5.20;;;;;;;19.31;63.84;95144.31;4180443;28;20060;-76
2023/09/06 06:30:32;;;;;;;10.05;5.57;;;;;;;19.29;63.33;95143.69;4197581;28;20457;-78
2023/09/06 06:32:35;;;;;;;10.40;5.45;;;;;;;19.34;63.63;95143.94;4189506;28;20495;-77
2023/09/06 06:35:16;;;;;;;8.23;5.30;;;;;;;19.44;63.02;95149.63;4178203;28;20052;-78
2023/09/06 06:37:19;;;;;;;6.75;5.00;;;;;;;19.49;62.83;95144.56;4191548;28;20060;-77
2023/09/06 06:39:21;;;;;;;10.10;5.72;;;;;;;19.56;63.02;95153.34;4197784;28;20414;-76
2023/09/06 06:41:22;;;;;;;14.48;5.80;;;;;;;19.61;63.06;95156.19;4194807;28;20045;-76
2023/09/06 06:43:25;;;;;;;8.25;5.30;;;;;;;19.66;62.27;95160.91;4190074;28;20052;-77
2023/09/06 06:45:26;;;;;;;7.47;4.57;;;;;;;19.70;62.47;95161.34;4187209;28;20060;-75
2023/09/06 06:47:28;;;;;;;9.10;5.43;;;;;;;19.74;62.00;95170.53;4187849;28;20155;-75
2023/09/06 06:49:30;;;;;;;9.02;4.63;;;;;;;19.71;60.96;95165.66;4192637;28;20441;-76
2023/09/06 06:51:38;;;;;;;8.98;4.97;;;;;;;19.76;61.08;95168.50;4185473;28;20100;-77
2023/09/06 06:53:42;;;;;;;8.82;5.45;;;;;;;19.80;60.89;95165.22;4165900;28;20099;-79
2023/09/06 06:55:43;;;;;;;13.23;5.13;;;;;;;19.84;60.48;95162.97;4197132;28;20052;-77
2023/09/06 06:57:45;;;;;;;6.63;4.90;;;;;;;19.91;60.63;95166.44;4191975;28;20143;-75
2023/09/06 06:59:47;;;;;;;8.15;5.43;;;;;;;20.07;60.74;95157.25;4190597;28;20049;-76
2023/09/06 07:01:49;;;;;;;12.60;6.25;;;;;;;20.16;61.46;95161.31;4176571;28;20073;-74
2023/09/06 07:03:51;;;;;;;9.75;5.57;;;;;;;20.26;60.46;95166.19;4188067;28;20071;-74
2023/09/06 07:05:52;;;;;;;14.80;5.20;;;;;;;20.33;60.34;95160.88;4186292;28;20048;-78
2023/09/06 07:07:54;;;;;;;11.52;5.65;;;;;;;20.40;59.67;95170.47;4192018;28;20048;-74
2023/09/06 07:09:56;;;;;;;8.65;5.05;;;;;;;20.46;59.37;95169.63;4195748;28;20053;-75
2023/09/06 07:11:58;;;;;;;9.80;4.85;;;;;;;20.51;59.01;95154.88;4191401;28;20052;-78
2023/09/06 07:14:00;;;;;;;11.68;5.53;;;;;;;20.45;58.77;95167.97;4182855;28;20048;-74
2023/09/06 07:16:03;;;;;;;8.98;4.90;;;;;;;20.41;58.77;95165.94;4192235;28;20056;-77
2023/09/06 07:18:08;;;;;;;6.22;4.90;;;;;;;20.40;59.02;95167.81;4196362;28;20474;-77
2023/09/06 07:20:12;;;;;;;6.63;5.13;;;;;;;20.45;59.32;95165.31;4193651;28;20579;-76
2023/09/06 07:22:14;;;;;;;9.55;5.35;;;;;;;20.49;59.31;95162.25;4199904;28;20418;-75
2023/09/06 07:24:16;;;;;;;7.65;5.00;;;;;;;20.49;58.78;95159.59;4212803;28;20064;-75
2023/09/06 07:26:18;;;;;;;10.02;6.00;;;;;;;20.52;59.24;95162.66;4201075;28;20079;-75
2023/09/06 07:28:23;;;;;;;7.03;4.90;;;;;;;20.62;59.22;95162.25;4195378;28;20072;-74
2023/09/06 07:30:25;;;;;;;15.82;5.80;;;;;;;20.68;59.00;95153.41;4179364;28;20169;-76
2023/09/06 07:32:27;;;;;;;8.85;5.78;;;;;;;20.70;58.49;95154.03;4189073;28;20267;-77
2023/09/06 07:34:30;;;;;;;8.85;5.32;;;;;;;20.74;58.52;95152.59;4195851;28;20076;-75
2023/09/06 07:36:32;;;;;;;5.90;4.83;;;;;;;20.81;58.22;95152.56;4193486;28;20467;-75
2023/09/06 07:38:34;;;;;;;9.38;5.35;;;;;;;20.90;57.99;95155.78;4178739;28;20041;-77
2023/09/06 07:40:36;;;;;;;11.38;5.38;;;;;;;20.96;57.57;95146.94;4178692;28;20124;-77
2023/09/06 07:42:40;;;;;;;6.97;5.57;;;;;;;21.12;57.68;95146.44;4186018;28;20048;-76
2023/09/06 07:44:42;;;;;;;9.30;4.78;;;;;;;21.28;57.42;95143.28;4193103;28;20052;-75
2023/09/06 07:46:48;;;;;;;6.60;4.78;;;;;;;21.31;56.75;95136.69;4184385;28;20429;-75
2023/09/06 07:48:51;;;;;;;9.07;5.28;;;;;;;21.31;56.06;95142.03;4183324;28;20059;-74
2023/09/06 07:50:53;;;;;;;7.80;5.10;;;;;;;21.38;55.74;95137.50;4193466;28;20087;-76
2023/09/06 07:52:55;;;;;;;8.73;4.85;;;;;;;21.53;55.59;95137.22;4183854;28;20102;-76
2023/09/06 07:54:58;;;;;;;9.55;5.13;;;;;;;21.73;55.58;95141.56;4190752;28;20372;-76
2023/09/06 07:57:00;;;;;;;8.27;5.00;;;;;;;21.97;54.89;95139.94;4173799;28;20045;-76
2023/09/06 07:59:02;;;;;;;9.55;4.85;;;;;;;22.16;53.75;95130.91;4189307;28;20143;-74
2023/09/06 08:01:04;;;;;;;8.85;5.00;;;;;;;22.29;52.87;95138.00;4183040;28;20132;-77
2023/09/06 08:03:19;;;;;;;8.35;5.20;;;;;;;22.41;53.13;95130.06;4166933;28;20049;-76
2023/09/06 08:05:22;;;;;;;10.20;5.88;;;;;;;22.47;53.19;95142.53;4190564;28;20532;-75
2023/09/06 08:07:24;;;;;;;11.60;5.47;;;;;;;22.60;52.58;95133.53;4195152;28;20063;-77
2023/09/06 08:09:25;;;;;;;7.05;4.65;;;;;;;22.56;52.12;95143.03;4189761;28;20099;-80
2023/09/06 08:11:27;;;;;;;6.47;4.60;;;;;;;22.48;52.49;95149.50;4175513;28;20067;-76
2023/09/06 08:13:29;;;;;;;9.00;4.97;;;;;;;22.40;51.95;95147.13;4206697;28;20051;-76
2023/09/06 08:15:31;;;;;;;6.75;5.25;;;;;;;22.38;52.36;95152.69;4193788;28;20048;-76
2023/09/06 08:17:33;;;;;;;7.97;5.43;;;;;;;22.33;52.14;95152.53;4195071;28;20048;-76
2023/09/06 08:19:35;;;;;;;10.48;5.10;;;;;;;22.17;52.52;95151.22;4193063;28;20539;-75
2023/09/06 08:21:37;;;;;;;10.73;5.18;;;;;;;22.20;51.98;95145.44;4193206;28;20053;-74
2023/09/06 08:23:38;;;;;;;8.85;5.25;;;;;;;22.23;52.03;95145.03;4194196;28;20085;-75
2023/09/06 08:25:43;;;;;;;10.77;5.18;;;;;;;22.35;52.31;95161.13;4165902;28;20049;-75
2023/09/06 08:27:45;;;;;;;8.45;5.40;;;;;;;22.37;52.08;95152.88;4194064;28;20052;-75
2023/09/06 08:29:47;;;;;;;6.72;4.97;;;;;;;22.52;51.79;95155.19;4175011;28;20087;-75
2023/09/06 08:31:49;;;;;;;9.90;5.43;;;;;;;22.52;51.76;95160.53;4193722;28;20044;-74
2023/09/06 08:33:50;;;;;;;6.57;4.85;;;;;;;22.66;51.24;95167.38;4184686;28;20056;-76
2023/09/06 08:35:52;;;;;;;8.50;5.97;;;;;;;22.66;50.59;95164.69;4194111;28;20060;-79
2023/09/06 08:37:54;;;;;;;6.85;4.80;;;;;;;22.78;50.07;95162.09;4193154;28;20395;-75
2023/09/06 08:39:56;;;;;;;7.32;5.03;;;;;;;22.87;50.02;95163.44;4194400;28;20056;-74
2023/09/06 08:41:58;;;;;;;14.68;5.50;;;;;;;23.13;50.14;95170.31;4187694;28;20098;-77
2023/09/06 08:44:06;;;;;;;14.33;5.97;;;;;;;23.23;49.79;95159.91;4189283;28;20052;-75
2023/09/06 08:46:22;;;;;;;9.57;4.97;;;;;;;23.28;48.67;95156.56;4180755;28;20174;-75
2023/09/06 08:48:24;;;;;;;10.32;4.78;;;;;;;23.24;49.09;95158.84;4187439;28;20041;-74
2023/09/06 08:50:26;;;;;;;10.77;5.20;;;;;;;23.07;49.46;95160.53;4175797;28;20075;-74
2023/09/06 08:52:28;;;;;;;8.15;5.63;;;;;;;22.81;50.47;95150.97;4180173;28;20041;-76
2023/09/06 08:54:30;;;;;;;10.70;5.60;;;;;;;22.85;50.14;95158.31;4180367;28;20119;-74
2023/09/06 08:56:32;;;;;;;10.02;5.22;;;;;;;22.92;50.62;95157.41;4161898;28;20546;-76
2023/09/06 08:58:35;;;;;;;8.68;5.05;;;;;;;22.99;49.52;95160.81;4174878;28;20091;-77
2023/09/06 09:00:38;;;;;;;7.87;4.77;;;;;;;23.18;49.29;95159.75;4194017;28;20048;-78
2023/09/06 09:02:42;;;;;;;10.07;5.25;;;;;;;23.28;49.90;95156.56;4191161;28;20305;-75
2023/09/06 09:04:44;;;;;;;10.23;5.25;;;;;;;23.33;49.82;95148.66;4188048;28;20056;-74
2023/09/06 09:06:46;;;;;;;7.82;4.93;;;;;;;23.21;49.77;95145.97;4192663;28;20045;-74
2023/09/06 09:08:48;;;;;;;9.10;5.15;;;;;;;23.30;49.64;95141.09;4176310;28;20048;-75
2023/09/06 09:11:21;;;;;;;7.57;5.13;;;;;;;23.23;49.61;95143.03;4194683;28;20054;-76
2023/09/06 09:13:24;;;;;;;10.18;5.40;;;;;;;23.26;49.74;95147.94;4175836;28;20056;-77
2023/09/06 09:15:26;;;;;;;8.75;5.13;;;;;;;23.28;49.11;95146.66;4187696;28;20123;-74
2023/09/06 09:17:29;;;;;;;10.45;4.85;;;;;;;23.18;49.82;95141.06;4189581;28;20056;-77
2023/09/06 09:19:31;;;;;;;8.43;5.20;;;;;;;23.17;49.91;95143.97;4187325;28;20048;-78
2023/09/06 09:21:32;;;;;;;7.80;5.10;;;;;;;23.15;49.57;95144.19;4194347;28;20044;-77
2023/09/06 09:23:42;;;;;;;10.68;4.90;;;;;;;23.18;49.78;95151.75;4192968;28;20519;-76
2023/09/06 09:25:48;;;;;;;9.32;5.38;;;;;;;23.03;49.32;95148.66;4192058;28;20587;-75
2023/09/06 09:27:54;;;;;;;6.75;5.05;;;;;;;23.05;49.84;95151.91;4178906;28;20060;-78
2023/09/06 09:29:56;;;;;;;7.97;5.20;;;;;;;23.04;49.80;95151.13;4176647;28;20110;-74
2023/09/06 09:32:03;;;;;;;7.10;5.22;;;;;;;22.93;49.79;95159.88;4161511;28;20051;-76
2023/09/06 09:34:04;;;;;;;9.70;5.43;;;;;;;22.88;49.95;95157.84;4177235;28;20057;-74
2023/09/06 09:36:07;;;;;;;11.02;5.97;;;;;;;22.98;50.57;95156.53;4175680;28;20059;-74
2023/09/06 09:38:10;;;;;;;11.82;6.18;;;;;;;23.00;50.36;95149.94;4180585;28;20178;-75
2023/09/06 09:40:18;;;;;;;;;;;;;;;23.16;49.97;95153.00;4176590;28;20128;-76